Lowell, Iowa
Current Conditions -  °F | °C
As of 5:35 AM on Friday 24 Oct 2014 (Local Time) from KMPZ Reporting Station
Drizzle Drizzle  
Wind Chill: 51°   Ceiling: 100
Heat Index: 51°   Visibility: 0.25mi
Dew Point: 51°   Wind: 0mph
Humidity: 100%   Direction: NA
Pressure: 30.06"   Gusts: NA
Location:  40.9215°N, 91.3849°W
Report Text: KMPZ 241035Z AUTO 00000KT 1/4SM -DZ OVC001 10/10 A3006 RMK AO2 T01040104
Loading
Personal Weather Stations






























Interactive Weather Map
Tropical Storm Tracking
New forecast layout! Learn more

10-Day Weather Forecast

Advertisements
Track Severe Weather on mobile